createdAt,value
2018-06-18T00:01:09.304Z,22.04
2018-06-18T00:03:38.827Z,22.04
2018-06-18T00:06:08.460Z,22.03
2018-06-18T00:08:37.829Z,22.04
2018-06-18T00:11:07.394Z,21.99
2018-06-18T00:13:36.993Z,21.99
2018-06-18T00:16:06.911Z,21.95
2018-06-18T00:18:36.481Z,21.87
2018-06-18T00:21:06.080Z,21.83
2018-06-18T00:23:35.442Z,21.77
2018-06-18T00:26:05.323Z,21.72
2018-06-18T00:28:34.928Z,21.70
2018-06-18T00:31:04.536Z,21.69
2018-06-18T00:33:34.120Z,21.69
2018-06-18T00:36:03.753Z,21.65
2018-06-18T00:38:33.420Z,21.60
2018-06-18T00:41:02.805Z,21.60
2018-06-18T00:43:32.257Z,21.57
2018-06-18T00:46:01.597Z,21.51
2018-06-18T00:48:31.151Z,21.48
2018-06-18T00:51:00.500Z,21.45
2018-06-18T00:53:29.879Z,20.63
2018-06-18T00:56:07.625Z,21.46
2018-06-18T00:58:37.059Z,21.44
2018-06-18T01:01:06.580Z,21.38
2018-06-18T01:03:36.324Z,21.35
2018-06-18T01:06:05.967Z,21.38
2018-06-18T01:08:35.688Z,21.29
2018-06-18T01:11:05.346Z,21.29
2018-06-18T01:13:34.928Z,21.22
2018-06-18T01:16:04.903Z,21.18
2018-06-18T01:18:34.446Z,21.16
2018-06-18T01:21:03.789Z,21.11
2018-06-18T01:24:47.245Z,20.67
2018-06-18T01:27:16.645Z,21.09
2018-06-18T01:29:45.961Z,21.10
2018-06-18T01:32:15.365Z,21.04
2018-06-18T01:34:44.911Z,20.97
2018-06-18T01:37:14.522Z,20.99
2018-06-18T01:39:43.872Z,21.00
2018-06-18T01:42:13.275Z,21.01
2018-06-18T01:44:42.602Z,20.97
2018-06-18T01:47:12.028Z,20.97
2018-06-18T01:49:42.080Z,20.93
2018-06-18T01:52:11.580Z,20.91
2018-06-18T01:54:40.912Z,20.87
2018-06-18T01:57:10.308Z,20.84
2018-06-18T01:59:39.756Z,20.85
2018-06-18T02:02:09.371Z,20.87
2018-06-18T02:04:39.922Z,20.84
2018-06-18T02:07:09.305Z,20.83
2018-06-18T02:09:38.820Z,20.86
2018-06-18T02:12:08.443Z,20.88
2018-06-18T02:14:37.791Z,20.91
2018-06-18T02:17:07.133Z,20.89
2018-06-18T02:19:36.887Z,20.91
2018-06-18T02:22:06.863Z,20.88
2018-06-18T02:24:36.212Z,20.89
2018-06-18T02:27:10.948Z,20.82
2018-06-18T02:29:45.398Z,20.83
2018-06-18T02:32:19.904Z,20.81
2018-06-18T02:34:54.547Z,20.77
2018-06-18T02:37:29.551Z,20.77
2018-06-18T02:40:10.022Z,20.75
2018-06-18T02:42:39.351Z,20.71
2018-06-18T02:45:14.809Z,20.66
2018-06-18T02:47:44.160Z,20.64
2018-06-18T02:50:13.671Z,20.63
2018-06-18T02:52:43.108Z,20.60
2018-06-18T02:55:15.068Z,19.84
2018-06-18T02:57:44.997Z,20.52
2018-06-18T03:00:14.985Z,20.57
2018-06-18T03:02:44.340Z,20.54
2018-06-18T03:05:13.842Z,20.50
2018-06-18T03:07:43.188Z,20.53
2018-06-18T03:10:12.532Z,20.53
2018-06-18T03:12:41.884Z,20.48
2018-06-18T03:15:11.697Z,20.47
2018-06-18T03:17:41.048Z,20.51
2018-06-18T03:20:17.592Z,20.42
2018-06-18T03:22:53.192Z,20.37
2018-06-18T03:25:27.764Z,20.37
2018-06-18T03:28:02.415Z,20.32
2018-06-18T03:30:31.989Z,20.32
2018-06-18T03:33:01.372Z,20.31
2018-06-18T03:35:30.927Z,20.25
2018-06-18T03:38:01.461Z,20.31
2018-06-18T03:40:31.212Z,20.25
2018-06-18T03:43:01.604Z,20.25
2018-06-18T03:45:33.059Z,20.22
2018-06-18T03:48:05.433Z,20.29
2018-06-18T03:50:45.771Z,20.32
2018-06-18T03:53:15.229Z,20.31
2018-06-18T03:55:50.261Z,20.35
2018-06-18T03:58:19.709Z,20.33
2018-06-18T04:01:35.381Z,20.33
2018-06-18T04:04:12.111Z,20.22
2018-06-18T04:06:46.735Z,20.26
2018-06-18T04:09:21.532Z,20.19
2018-06-18T04:11:56.537Z,20.18
2018-06-18T04:14:25.900Z,20.17
2018-06-18T04:16:58.155Z,20.18
2018-06-18T04:19:27.736Z,20.16
2018-06-18T04:21:57.341Z,20.16
2018-06-18T04:24:26.914Z,20.19
2018-06-18T04:26:57.649Z,20.19
2018-06-18T04:29:27.029Z,20.21
2018-06-18T04:31:56.396Z,20.24
2018-06-18T04:34:34.288Z,20.26
2018-06-18T04:37:04.454Z,20.18
2018-06-18T04:39:34.023Z,20.15
2018-06-18T04:42:08.845Z,20.18
2018-06-18T04:44:43.677Z,20.18
2018-06-18T04:47:18.896Z,16.25
2018-06-18T04:49:53.681Z,20.16
2018-06-18T04:52:23.312Z,20.24
2018-06-18T04:54:53.467Z,20.31
2018-06-18T04:57:22.811Z,20.35
2018-06-18T05:00:11.248Z,20.39
2018-06-18T05:02:40.872Z,20.32
2018-06-18T05:05:16.577Z,20.41
2018-06-18T05:07:48.585Z,20.41
2018-06-18T05:10:25.613Z,20.50
2018-06-18T05:12:55.815Z,20.54
2018-06-18T05:15:28.649Z,20.54
2018-06-18T05:17:58.075Z,20.54
2018-06-18T05:20:27.752Z,20.45
2018-06-18T05:22:57.579Z,20.50
2018-06-18T05:25:27.452Z,20.32
2018-06-18T05:27:57.151Z,20.24
2018-06-18T05:30:30.380Z,20.14
2018-06-18T05:33:01.167Z,20.37
2018-06-18T05:35:30.545Z,20.38
2018-06-18T05:38:10.331Z,20.48
2018-06-18T05:40:39.784Z,20.50
2018-06-18T05:43:09.468Z,20.54
2018-06-18T05:45:38.836Z,20.56
2018-06-18T05:48:08.248Z,20.56
2018-06-18T05:50:37.642Z,20.54
2018-06-18T05:53:07.149Z,20.55
2018-06-18T05:55:51.019Z,20.63
2018-06-18T05:58:20.682Z,20.53
2018-06-18T06:00:50.323Z,20.54
2018-06-18T06:03:19.681Z,20.62
2018-06-18T06:05:49.669Z,20.66
2018-06-18T06:08:19.191Z,20.75
2018-06-18T06:10:48.630Z,20.75
2018-06-18T06:13:17.988Z,20.68
2018-06-18T06:15:47.399Z,20.56
2018-06-18T06:18:16.772Z,20.42
2018-06-18T06:20:52.316Z,20.47
2018-06-18T06:23:21.706Z,20.45
2018-06-18T06:25:51.603Z,20.55
2018-06-18T06:28:21.406Z,20.73
2018-06-18T06:30:50.780Z,20.74
2018-06-18T06:33:20.448Z,20.74
2018-06-18T06:35:50.513Z,20.22
2018-06-18T06:38:20.089Z,20.77
2018-06-18T06:40:49.815Z,20.69
2018-06-18T06:43:19.148Z,20.58
2018-06-18T06:45:48.565Z,20.74
2018-06-18T06:48:17.959Z,20.74
2018-06-18T06:50:48.300Z,20.66
2018-06-18T06:53:17.884Z,20.76
2018-06-18T06:55:47.227Z,20.75
2018-06-18T06:58:16.588Z,20.73
2018-06-18T07:00:46.396Z,20.90
2018-06-18T07:03:16.068Z,20.94
2018-06-18T07:05:45.636Z,20.84
2018-06-18T07:08:14.984Z,21.10
2018-06-18T07:10:47.584Z,21.22
2018-06-18T07:13:17.238Z,21.29
2018-06-18T07:15:46.843Z,21.27
2018-06-18T07:18:16.155Z,21.22
2018-06-18T07:20:45.523Z,21.36
2018-06-18T07:23:15.240Z,21.33
2018-06-18T07:25:44.670Z,21.32
2018-06-18T07:28:14.599Z,21.50
2018-06-18T07:30:44.217Z,21.65
2018-06-18T07:33:13.736Z,21.73
2018-06-18T07:35:43.148Z,21.75
2018-06-18T07:38:12.958Z,21.95
2018-06-18T07:40:42.491Z,22.03
2018-06-18T07:43:11.828Z,21.95
2018-06-18T07:45:41.286Z,22.25
2018-06-18T07:48:10.848Z,22.19
2018-06-18T07:50:40.191Z,22.29
2018-06-18T07:53:09.740Z,22.20
2018-06-18T07:55:39.112Z,22.27
2018-06-18T07:58:08.527Z,22.46
2018-06-18T08:00:37.951Z,22.41
2018-06-18T08:03:07.446Z,22.48
2018-06-18T08:05:36.883Z,22.64
2018-06-18T08:08:06.264Z,22.72
2018-06-18T08:10:35.767Z,22.70
2018-06-18T08:13:05.123Z,22.39
2018-06-18T08:15:34.688Z,22.59
2018-06-18T08:18:04.294Z,22.60
2018-06-18T08:20:33.920Z,22.60
2018-06-18T08:23:03.308Z,22.48
2018-06-18T08:25:32.801Z,22.64
2018-06-18T08:28:02.168Z,22.70
2018-06-18T08:30:31.491Z,22.70
2018-06-18T08:33:00.981Z,22.87
2018-06-18T08:35:30.734Z,22.91
2018-06-18T08:38:00.273Z,23.10
2018-06-18T08:40:29.848Z,23.25
2018-06-18T08:42:59.162Z,23.38
2018-06-18T08:45:28.788Z,23.26
2018-06-18T08:47:58.647Z,23.18
2018-06-18T08:50:33.393Z,23.10
2018-06-18T08:53:08.463Z,23.22
2018-06-18T08:55:43.092Z,23.21
2018-06-18T08:58:17.772Z,23.23
2018-06-18T09:00:52.447Z,23.35
2018-06-18T09:03:22.804Z,23.52
2018-06-18T09:05:54.895Z,23.68
2018-06-18T09:08:27.180Z,23.54
2018-06-18T09:10:56.515Z,23.65
2018-06-18T09:13:25.864Z,23.56
2018-06-18T09:15:55.561Z,23.60
2018-06-18T09:18:24.986Z,23.67
2018-06-18T09:20:54.596Z,23.94
2018-06-18T09:23:23.939Z,24.07
2018-06-18T09:25:58.675Z,24.11
2018-06-18T09:28:29.831Z,24.08
2018-06-18T09:30:59.437Z,24.41
2018-06-18T09:33:29.088Z,24.17
2018-06-18T09:35:58.697Z,24.26
2018-06-18T09:38:28.025Z,24.57
2018-06-18T09:40:57.608Z,24.35
2018-06-18T09:43:26.953Z,24.48
2018-06-18T09:45:56.282Z,24.27
2018-06-18T09:48:31.111Z,24.63
2018-06-18T09:51:05.946Z,24.42
2018-06-18T09:53:40.608Z,24.66
2018-06-18T09:56:15.252Z,24.90
2018-06-18T09:58:49.940Z,24.90
2018-06-18T10:01:24.837Z,24.91
2018-06-18T10:03:54.481Z,25.01
2018-06-18T10:06:25.268Z,25.17
2018-06-18T10:08:54.636Z,25.20
2018-06-18T10:11:24.154Z,25.23
2018-06-18T10:13:53.624Z,25.12
2018-06-18T10:16:22.932Z,25.27
2018-06-18T10:18:52.263Z,25.27
2018-06-18T10:21:21.815Z,25.03
2018-06-18T10:23:51.508Z,25.15
2018-06-18T10:26:20.836Z,25.38
2018-06-18T10:28:50.252Z,25.20
2018-06-18T10:31:19.857Z,25.19
2018-06-18T10:33:54.592Z,25.44
2018-06-18T10:36:29.312Z,25.47
2018-06-18T10:39:03.940Z,25.49
2018-06-18T10:41:38.510Z,25.45
2018-06-18T10:44:08.198Z,25.51
2018-06-18T10:46:37.523Z,25.66
2018-06-18T10:49:06.876Z,25.56
2018-06-18T10:51:36.227Z,25.65
2018-06-18T10:54:05.576Z,25.77
2018-06-18T10:56:34.904Z,25.75
2018-06-18T10:59:04.323Z,25.58
2018-06-18T11:01:34.479Z,25.60
2018-06-18T11:04:04.064Z,25.83
2018-06-18T11:06:38.324Z,25.73
2018-06-18T11:09:11.360Z,25.89
2018-06-18T11:11:40.705Z,25.96
2018-06-18T11:14:10.032Z,26.16
2018-06-18T11:16:40.025Z,25.79
2018-06-18T11:19:14.551Z,25.86
2018-06-18T11:21:49.575Z,25.84
2018-06-18T11:24:26.677Z,25.78
2018-06-18T11:26:57.654Z,25.76
2018-06-18T11:29:27.144Z,26.02
2018-06-18T11:31:56.580Z,25.94
2018-06-18T11:34:26.160Z,26.17
2018-06-18T11:36:55.768Z,26.16
2018-06-18T11:39:25.213Z,26.06
2018-06-18T11:41:54.804Z,26.06
2018-06-18T11:44:24.228Z,26.24
2018-06-18T11:46:53.596Z,26.12
2018-06-18T11:49:23.209Z,26.36
2018-06-18T11:51:52.701Z,26.17
2018-06-18T11:54:22.144Z,26.08
2018-06-18T11:56:51.684Z,26.04
2018-06-18T11:59:26.480Z,26.04
2018-06-18T12:02:01.060Z,26.11
2018-06-18T12:04:35.813Z,26.38
2018-06-18T12:07:13.422Z,26.06
2018-06-18T12:09:44.333Z,26.22
2018-06-18T12:12:13.980Z,26.28
2018-06-18T12:14:43.568Z,26.42
2018-06-18T12:17:12.935Z,26.50
2018-06-18T12:19:42.760Z,26.52
2018-06-18T12:22:12.438Z,26.54
2018-06-18T12:24:41.974Z,25.78
2018-06-18T12:27:14.364Z,26.64
2018-06-18T12:29:43.961Z,26.64
2018-06-18T12:32:13.337Z,26.91
2018-06-18T12:34:42.867Z,26.72
2018-06-18T12:37:12.233Z,26.71
2018-06-18T12:39:41.783Z,26.64
2018-06-18T12:42:11.404Z,26.78
2018-06-18T12:44:46.054Z,26.83
2018-06-18T12:47:20.592Z,27.03
2018-06-18T12:49:55.147Z,27.01
2018-06-18T12:52:29.726Z,26.77
2018-06-18T12:57:43.044Z,26.83
2018-06-18T13:00:12.440Z,26.90
2018-06-18T13:02:45.645Z,26.86
2018-06-18T13:05:15.041Z,26.90
2018-06-18T13:07:44.375Z,26.67
2018-06-18T13:10:13.765Z,27.09
2018-06-18T13:12:43.243Z,27.02
2018-06-18T13:15:12.612Z,26.96
2018-06-18T13:17:41.947Z,26.83
2018-06-18T13:20:11.592Z,27.09
2018-06-18T13:22:41.060Z,26.95
2018-06-18T13:25:10.692Z,26.79
2018-06-18T13:27:45.254Z,26.79
2018-06-18T13:30:15.170Z,27.02
2018-06-18T13:32:44.556Z,26.87
2018-06-18T13:35:15.104Z,26.83
2018-06-18T13:37:49.686Z,26.88
2018-06-18T13:40:24.434Z,27.00
2018-06-18T13:42:59.160Z,26.94
2018-06-18T13:45:34.939Z,27.09
2018-06-18T13:48:09.424Z,27.17
2018-06-18T13:50:38.861Z,26.95
2018-06-18T13:53:08.634Z,27.00
2018-06-18T13:55:37.981Z,27.10
2018-06-18T13:58:08.512Z,27.05
2018-06-18T14:00:38.364Z,27.06
2018-06-18T14:03:07.711Z,27.02
2018-06-18T14:05:37.294Z,27.15
2018-06-18T14:08:06.633Z,27.25
2018-06-18T14:10:36.196Z,27.34
2018-06-18T14:13:05.906Z,27.26
2018-06-18T14:15:35.281Z,27.43
2018-06-18T14:18:05.337Z,27.55
2018-06-18T14:20:34.963Z,27.22
2018-06-18T14:23:04.416Z,27.08
2018-06-18T14:25:34.028Z,27.17
2018-06-18T14:28:03.376Z,27.05
2018-06-18T14:30:37.914Z,27.24
2018-06-18T14:33:13.268Z,27.03
2018-06-18T14:35:48.068Z,27.41
2018-06-18T14:38:22.712Z,27.13
2018-06-18T14:40:52.231Z,27.37
2018-06-18T14:43:21.681Z,27.31
2018-06-18T14:45:51.329Z,27.32
2018-06-18T14:48:20.941Z,27.17
2018-06-18T14:50:50.802Z,27.09
2018-06-18T14:53:22.422Z,27.29
2018-06-18T14:56:31.935Z,27.37
2018-06-18T14:59:08.846Z,27.30
2018-06-18T15:01:38.398Z,26.95
2018-06-18T15:04:07.835Z,27.13
2018-06-18T15:06:37.625Z,27.07
2018-06-18T15:09:09.565Z,26.97
2018-06-18T15:11:39.295Z,27.00
2018-06-18T15:14:08.965Z,27.06
2018-06-18T15:16:38.517Z,27.12
2018-06-18T15:19:07.998Z,27.15
2018-06-18T15:21:42.052Z,27.14
2018-06-18T15:24:14.924Z,27.24
2018-06-18T15:26:44.366Z,27.43
2018-06-18T15:29:14.001Z,27.19
2018-06-18T15:31:43.475Z,26.82
2018-06-18T15:34:12.839Z,26.60
2018-06-18T15:36:42.198Z,26.67
2018-06-18T15:39:11.743Z,26.80
2018-06-18T15:41:41.443Z,26.96
2018-06-18T15:44:11.115Z,26.97
2018-06-18T15:46:40.889Z,26.93
2018-06-18T15:49:10.746Z,26.87
2018-06-18T15:51:40.735Z,27.00
2018-06-18T15:54:10.096Z,26.78
2018-06-18T15:56:39.685Z,26.78
2018-06-18T15:59:09.281Z,26.79
2018-06-18T16:01:39.097Z,26.90
2018-06-18T16:04:09.703Z,26.83
2018-06-18T16:06:39.788Z,26.91
2018-06-18T16:09:10.255Z,27.02
2018-06-18T16:11:40.031Z,27.12
2018-06-18T16:14:10.095Z,27.07
2018-06-18T16:16:40.762Z,26.98
2018-06-18T16:19:10.652Z,26.87
2018-06-18T16:21:40.012Z,26.71
2018-06-18T16:24:09.378Z,26.46
2018-06-18T16:26:38.868Z,26.33
2018-06-18T16:29:08.452Z,26.39
2018-06-18T16:31:37.780Z,26.40
2018-06-18T16:34:07.564Z,26.62
2018-06-18T16:36:37.134Z,26.58
2018-06-18T16:39:09.340Z,26.49
2018-06-18T16:41:38.700Z,26.44
2018-06-18T16:44:08.556Z,26.50
2018-06-18T16:46:38.795Z,26.52
2018-06-18T16:49:08.726Z,26.39
2018-06-18T16:51:38.055Z,26.34
2018-06-18T16:54:07.432Z,26.31
2018-06-18T16:56:36.978Z,26.39
2018-06-18T16:59:06.610Z,26.29
2018-06-18T17:01:36.200Z,26.22
2018-06-18T17:04:05.820Z,26.26
2018-06-18T17:06:35.888Z,26.31
2018-06-18T17:09:08.249Z,26.43
2018-06-18T17:11:38.005Z,26.38
2018-06-18T17:14:07.943Z,26.17
2018-06-18T17:16:37.382Z,26.09
2018-06-18T17:19:06.911Z,26.08
2018-06-18T17:21:36.260Z,26.07
2018-06-18T17:24:06.713Z,26.01
2018-06-18T17:26:36.264Z,25.90
2018-06-18T17:29:05.882Z,25.82
2018-06-18T17:31:35.228Z,25.86
2018-06-18T17:34:04.795Z,25.82
2018-06-18T17:36:34.163Z,25.78
2018-06-18T17:39:04.760Z,25.68
2018-06-18T17:41:34.225Z,25.52
2018-06-18T17:46:47.597Z,25.27
2018-06-18T17:49:17.187Z,25.19
2018-06-18T17:51:46.536Z,25.07
2018-06-18T17:54:15.920Z,24.91
2018-06-18T17:56:45.292Z,24.80
2018-06-18T17:59:17.571Z,24.76
2018-06-18T18:01:47.257Z,24.79
2018-06-18T18:04:16.932Z,24.66
2018-06-18T18:06:46.319Z,24.59
2018-06-18T18:10:18.630Z,24.50
2018-06-18T18:12:47.979Z,24.46
2018-06-18T18:15:17.420Z,24.44
2018-06-18T18:17:47.087Z,24.37
2018-06-18T18:20:16.691Z,24.34
2018-06-18T18:22:46.292Z,24.21
2018-06-18T18:25:16.092Z,24.19
2018-06-18T18:27:47.271Z,24.08
2018-06-18T18:30:16.663Z,24.04
2018-06-18T18:32:46.256Z,24.01
2018-06-18T18:35:15.864Z,23.96
2018-06-18T18:37:45.760Z,23.89
2018-06-18T18:40:15.088Z,23.86
2018-06-18T18:42:44.681Z,23.81
2018-06-18T18:45:14.312Z,23.77
2018-06-18T18:47:43.688Z,23.70
2018-06-18T18:50:13.476Z,23.71
2018-06-18T18:52:42.824Z,23.69
2018-06-18T18:55:32.466Z,23.64
2018-06-18T18:58:14.783Z,23.60
2018-06-18T19:00:45.416Z,23.53
2018-06-18T19:03:15.680Z,23.48
2018-06-18T19:05:45.716Z,23.48
2018-06-18T19:08:18.615Z,23.48
2018-06-18T19:10:48.176Z,23.47
2018-06-18T19:13:20.883Z,23.43
2018-06-18T19:15:52.119Z,23.43
2018-06-18T19:18:21.948Z,23.44
2018-06-18T19:21:00.552Z,23.39
2018-06-18T19:23:30.475Z,23.36
2018-06-18T19:25:59.839Z,23.33
2018-06-18T19:28:29.759Z,23.29
2018-06-18T19:31:02.560Z,23.29
2018-06-18T19:33:38.010Z,23.24
2018-06-18T19:36:08.493Z,23.20
2018-06-18T19:38:38.938Z,23.16
2018-06-18T19:41:10.254Z,23.09
2018-06-18T19:43:39.821Z,23.07
2018-06-18T19:46:09.246Z,23.05
2018-06-18T19:48:47.015Z,23.01
2018-06-18T19:51:16.920Z,23.01
2018-06-18T19:53:46.259Z,23.00
2018-06-18T19:56:16.256Z,22.99
2018-06-18T19:58:46.059Z,23.02
2018-06-18T20:01:15.672Z,23.03
2018-06-18T20:03:45.289Z,23.06
2018-06-18T20:06:14.648Z,23.07
2018-06-18T20:08:44.181Z,23.08
2018-06-18T20:11:13.527Z,23.11
2018-06-18T20:13:42.876Z,23.13
2018-06-18T20:16:12.442Z,23.15
2018-06-18T20:18:42.008Z,23.12
2018-06-18T20:21:11.424Z,23.07
2018-06-18T20:23:41.174Z,23.05
2018-06-18T20:26:13.596Z,23.01
2018-06-18T20:28:43.196Z,23.01
2018-06-18T20:31:12.568Z,23.00
2018-06-18T20:33:46.610Z,22.94
2018-06-18T20:36:17.156Z,22.94
2018-06-18T20:38:46.785Z,22.91
2018-06-18T20:41:16.186Z,22.89
2018-06-18T20:43:54.138Z,22.89
2018-06-18T20:46:23.501Z,22.87
2018-06-18T20:48:53.161Z,22.83
2018-06-18T20:51:23.246Z,22.78
2018-06-18T20:53:52.829Z,22.72
2018-06-18T20:56:22.167Z,22.73
2018-06-18T20:58:51.939Z,22.58
2018-06-18T21:01:21.517Z,22.58
2018-06-18T21:03:51.160Z,22.61
2018-06-18T21:06:20.500Z,22.59
2018-06-18T21:08:49.834Z,22.55
2018-06-18T21:11:19.340Z,22.54
2018-06-18T21:13:49.136Z,22.48
2018-06-18T21:16:18.580Z,22.49
2018-06-18T21:18:47.913Z,22.44
2018-06-18T21:21:17.256Z,22.44
2018-06-18T21:23:46.620Z,22.42
2018-06-18T21:26:16.119Z,22.40
2018-06-18T21:28:45.703Z,22.34
2018-06-18T21:31:15.328Z,22.32
2018-06-18T21:33:44.923Z,22.32
2018-06-18T21:36:14.346Z,22.26
2018-06-18T21:38:44.114Z,22.29
2018-06-18T21:41:13.447Z,22.21
2018-06-18T21:43:43.031Z,22.26
2018-06-18T21:46:12.401Z,22.23
2018-06-18T21:48:41.940Z,22.23
2018-06-18T21:51:11.567Z,22.21
2018-06-18T21:53:40.928Z,22.15
2018-06-18T21:56:10.479Z,22.10
2018-06-18T21:58:39.851Z,22.09
2018-06-18T22:01:09.179Z,22.03
2018-06-18T22:03:38.714Z,21.98
2018-06-18T22:06:08.021Z,21.99
2018-06-18T22:08:37.581Z,21.92
2018-06-18T22:11:06.982Z,21.95
2018-06-18T22:13:42.028Z,21.90
2018-06-18T22:16:16.750Z,21.80
2018-06-18T22:18:51.676Z,21.73
2018-06-18T22:21:26.497Z,21.73
2018-06-18T22:24:01.648Z,21.72
2018-06-18T22:26:36.728Z,21.69
2018-06-18T22:29:12.145Z,21.64
2018-06-18T22:31:46.893Z,21.60
2018-06-18T22:34:21.613Z,21.62
2018-06-18T22:36:57.113Z,21.59
2018-06-18T22:39:31.903Z,21.57
2018-06-18T22:42:06.652Z,21.55
2018-06-18T22:44:41.403Z,21.52
2018-06-18T22:47:16.704Z,21.54
2018-06-18T22:49:51.432Z,21.53
2018-06-18T22:52:26.327Z,21.51
2018-06-18T22:55:00.979Z,21.44
2018-06-18T22:57:36.295Z,21.38
2018-06-18T23:00:14.775Z,21.40
2018-06-18T23:02:49.635Z,21.35
2018-06-18T23:05:26.350Z,21.34
2018-06-18T23:08:01.178Z,21.29
2018-06-18T23:10:36.080Z,21.26
2018-06-18T23:13:10.820Z,21.21
2018-06-18T23:15:46.024Z,21.05
2018-06-18T23:18:20.875Z,21.09
2018-06-18T23:20:55.609Z,21.01
2018-06-18T23:23:30.741Z,19.08
2018-06-18T23:26:06.803Z,20.95
2018-06-18T23:28:51.902Z,20.97
2018-06-18T23:31:26.866Z,21.01
2018-06-18T23:34:01.744Z,21.03
2018-06-18T23:36:36.884Z,21.01
2018-06-18T23:39:12.483Z,20.95
2018-06-18T23:41:49.699Z,20.89
2018-06-18T23:44:24.735Z,20.82
2018-06-18T23:46:59.529Z,20.81
2018-06-18T23:49:34.408Z,20.81
2018-06-18T23:52:09.246Z,20.80
2018-06-18T23:54:44.055Z,20.73
2018-06-18T23:57:18.807Z,20.68
2018-06-18T23:59:53.611Z,20.69
